Time;durP1;ratioP1;P1;durP2;ratioP2;P2;SDS_P1;SDS_P2;PMS_P1;PMS_P2;Temp;Humidity;BMP_temperature;BMP_pressure;BME280_temperature;BME280_humidity;BME280_pressure;Samples;Min_cycle;Max_cycle;Signal;HPM_P1;HPM_P2
2023/09/22 00:00:18;;;;;;;12.50;7.63;;;;;;;;;;6249024;28;20356;-78
2023/09/22 00:03:23;;;;;;;9.35;7.70;;;;;;;;;;6278655;28;20218;-81
2023/09/22 00:06:24;;;;;;;12.98;8.55;;;;;;;;;;6278445;28;20072;-81
2023/09/22 00:09:26;;;;;;;13.55;8.80;;;;;;;;;;6275560;28;20049;-80
2023/09/22 00:12:29;;;;;;;13.05;8.13;;;;;;;;;;6271462;28;20045;-80
2023/09/22 00:15:32;;;;;;;14.20;8.57;;;;;;;;;;6255236;28;20048;-78
2023/09/22 00:18:35;;;;;;;11.32;7.82;;;;;;;;;;6249516;28;20077;-78
2023/09/22 00:21:37;;;;;;;13.60;8.35;;;;;;;;;;6251110;28;20060;-79
2023/09/22 00:24:39;;;;;;;19.23;7.95;;;;;;;;;;6264397;28;20075;-80
2023/09/22 00:27:41;;;;;;;11.68;7.65;;;;;;;;;;6275840;28;20819;-79
2023/09/22 00:30:43;;;;;;;11.48;8.60;;;;;;;;;;6254564;28;20116;-80
2023/09/22 00:33:46;;;;;;;14.20;8.35;;;;;;;;;;6256811;28;20249;-79
2023/09/22 00:36:48;;;;;;;13.02;8.23;;;;;;;;;;6276707;28;20053;-78
2023/09/22 00:39:50;;;;;;;12.75;8.32;;;;;;;;;;6278342;28;20156;-81
2023/09/22 00:43:06;;;;;;;12.20;8.52;;;;;;;;;;6276883;28;20337;-80
2023/09/22 00:46:08;;;;;;;11.77;8.45;;;;;;;;;;6273044;28;20063;-78
2023/09/22 00:49:11;;;;;;;12.65;7.90;;;;;;;;;;6265963;28;20072;-78
2023/09/22 00:52:14;;;;;;;13.20;8.63;;;;;;;;;;6270461;28;20057;-80
2023/09/22 00:55:16;;;;;;;12.57;8.77;;;;;;;;;;6260057;28;20341;-79
2023/09/22 00:58:18;;;;;;;9.82;8.00;;;;;;;;;;6234663;28;20057;-79
2023/09/22 01:01:21;;;;;;;10.98;8.00;;;;;;;;;;6248755;28;20149;-77
2023/09/22 01:04:24;;;;;;;13.03;8.07;;;;;;;;;;6253066;28;20061;-78
2023/09/22 01:07:26;;;;;;;12.93;8.15;;;;;;;;;;6250633;28;20267;-78
2023/09/22 01:10:35;;;;;;;14.68;8.95;;;;;;;;;;6251086;28;20053;-77
2023/09/22 01:13:37;;;;;;;12.15;8.10;;;;;;;;;;6244595;28;20281;-79
2023/09/22 01:16:39;;;;;;;11.95;7.80;;;;;;;;;;6243949;28;20076;-77
2023/09/22 01:19:43;;;;;;;12.35;7.82;;;;;;;;;;6247762;28;20123;-79
2023/09/22 01:22:46;;;;;;;10.90;8.05;;;;;;;;;;6252185;28;20057;-79
2023/09/22 01:25:48;;;;;;;13.38;8.00;;;;;;;;;;6247838;28;20100;-78
2023/09/22 01:28:50;;;;;;;9.43;7.47;;;;;;;;;;6249843;28;20053;-82
2023/09/22 01:31:51;;;;;;;10.63;7.28;;;;;;;;;;6254491;28;20049;-80
2023/09/22 01:34:54;;;;;;;9.23;7.60;;;;;;;;;;6248866;28;20061;-80
2023/09/22 01:38:01;;;;;;;14.70;8.37;;;;;;;;;;6253666;28;20049;-80
2023/09/22 01:41:03;;;;;;;13.45;8.30;;;;;;;;;;6252059;28;20099;-78
2023/09/22 01:44:05;;;;;;;12.82;7.70;;;;;;;;;;6252497;28;20064;-77
2023/09/22 01:47:08;;;;;;;9.77;7.70;;;;;;;;;;6249614;28;20076;-77
2023/09/22 01:50:10;;;;;;;10.25;7.60;;;;;;;;;;6251440;28;20092;-78
2023/09/22 01:53:13;;;;;;;13.65;8.02;;;;;;;;;;6264106;28;20112;-78
2023/09/22 01:56:15;;;;;;;12.30;7.30;;;;;;;;;;6276909;28;20049;-77
2023/09/22 01:59:17;;;;;;;12.55;7.57;;;;;;;;;;6272222;28;20280;-77
2023/09/22 02:02:19;;;;;;;10.27;7.72;;;;;;;;;;6277133;28;20148;-77
2023/09/22 02:05:20;;;;;;;10.40;7.10;;;;;;;;;;6259017;28;20424;-77
2023/09/22 02:08:24;;;;;;;8.50;6.82;;;;;;;;;;6269120;28;20049;-77
2023/09/22 02:11:25;;;;;;;12.55;6.30;;;;;;;;;;6265957;28;20102;-77
2023/09/22 02:14:27;;;;;;;12.68;6.15;;;;;;;;;;6270214;28;20360;-77
2023/09/22 02:17:29;;;;;;;10.57;5.70;;;;;;;;;;6253464;28;20128;-77
2023/09/22 02:20:31;;;;;;;8.40;6.00;;;;;;;;;;6254004;28;20229;-77
2023/09/22 02:23:35;;;;;;;10.85;6.20;;;;;;;;;;6256254;28;20064;-76
2023/09/22 02:26:38;;;;;;;10.60;5.43;;;;;;;;;;6256916;28;20041;-75
2023/09/22 02:29:40;;;;;;;7.97;4.85;;;;;;;;;;6253407;28;20055;-77
2023/09/22 02:32:43;;;;;;;8.40;5.03;;;;;;;;;;6255969;28;20088;-76
2023/09/22 02:35:44;;;;;;;10.80;5.63;;;;;;;;;;6253997;28;20037;-76
2023/09/22 02:38:48;;;;;;;10.90;5.40;;;;;;;;;;6255404;28;20116;-77
2023/09/22 02:41:49;;;;;;;16.15;5.63;;;;;;;;;;6254501;28;20069;-77
2023/09/22 02:44:51;;;;;;;12.60;5.57;;;;;;;;;;6253484;28;20053;-78
2023/09/22 02:47:53;;;;;;;7.90;5.53;;;;;;;;;;6252529;28;20075;-77
2023/09/22 02:50:55;;;;;;;8.25;5.80;;;;;;;;;;6255277;28;20149;-78
2023/09/22 02:53:58;;;;;;;11.35;6.05;;;;;;;;;;6252432;28;20061;-77
2023/09/22 02:57:01;;;;;;;9.13;6.03;;;;;;;;;;6248771;28;20326;-76
2023/09/22 03:00:11;;;;;;;16.08;6.82;;;;;;;;;;6250653;28;20053;-78
2023/09/22 03:03:13;;;;;;;12.25;6.60;;;;;;;;;;6255502;28;20392;-77
2023/09/22 03:06:18;;;;;;;11.02;6.60;;;;;;;;;;6255150;28;20273;-76
2023/09/22 03:09:21;;;;;;;10.43;6.68;;;;;;;;;;6255321;28;20049;-77
2023/09/22 03:12:23;;;;;;;10.63;6.25;;;;;;;;;;6250386;28;20049;-77
2023/09/22 03:15:25;;;;;;;14.13;6.47;;;;;;;;;;6268143;28;20052;-76
2023/09/22 03:18:26;;;;;;;10.85;7.05;;;;;;;;;;6280868;28;20045;-78
2023/09/22 03:21:28;;;;;;;11.90;6.65;;;;;;;;;;6253778;28;20049;-77
2023/09/22 03:24:31;;;;;;;12.93;7.05;;;;;;;;;;6255609;28;20399;-78
2023/09/22 03:27:34;;;;;;;10.30;7.25;;;;;;;;;;6252267;28;20072;-76
2023/09/22 03:30:35;;;;;;;14.85;7.60;;;;;;;;;;6253326;28;20100;-78
2023/09/22 03:33:40;;;;;;;13.40;8.02;;;;;;;;;;6254686;28;20045;-77
2023/09/22 03:36:42;;;;;;;16.02;8.18;;;;;;;;;;6254557;28;20067;-78
2023/09/22 03:39:47;;;;;;;18.00;9.27;;;;;;;;;;6254393;28;20076;-77
2023/09/22 03:42:49;;;;;;;16.58;9.07;;;;;;;;;;6254576;28;20049;-78
2023/09/22 03:45:53;;;;;;;14.77;9.85;;;;;;;;;;6254112;28;20060;-77
2023/09/22 03:48:55;;;;;;;16.63;9.93;;;;;;;;;;6259929;28;20769;-78
2023/09/22 03:51:57;;;;;;;17.17;10.15;;;;;;;;;;6257627;28;20298;-78
2023/09/22 03:55:00;;;;;;;17.25;11.00;;;;;;;;;;6276864;28;20363;-78
2023/09/22 03:58:02;;;;;;;23.98;12.20;;;;;;;;;;6270141;28;20423;-78
2023/09/22 04:01:06;;;;;;;18.30;12.10;;;;;;;;;;6256826;28;20060;-80
2023/09/22 04:04:07;;;;;;;21.58;12.27;;;;;;;;;;6267366;28;20048;-79
2023/09/22 04:07:09;;;;;;;19.50;13.40;;;;;;;;;;6258820;28;20080;-79
2023/09/22 04:10:13;;;;;;;21.55;13.68;;;;;;;;;;6270171;28;20045;-80
2023/09/22 04:13:15;;;;;;;21.55;14.30;;;;;;;;;;6258547;28;20052;-80
2023/09/22 04:16:16;;;;;;;24.73;14.98;;;;;;;;;;6255645;28;20379;-81
2023/09/22 04:19:18;;;;;;;21.38;15.60;;;;;;;;;;6242896;28;20116;-81
2023/09/22 04:22:21;;;;;;;21.00;15.52;;;;;;;;;;6251702;28;20569;-80
2023/09/22 04:25:31;;;;;;;22.67;15.30;;;;;;;;;;6250937;28;20054;-78
2023/09/22 04:28:33;;;;;;;24.48;15.13;;;;;;;;;;6250927;28;20049;-78
2023/09/22 04:31:35;;;;;;;20.75;14.75;;;;;;;;;;6251307;28;20100;-79
2023/09/22 04:34:38;;;;;;;22.35;15.48;;;;;;;;;;6249620;28;20045;-79
2023/09/22 04:37:40;;;;;;;19.43;13.73;;;;;;;;;;6245441;28;20052;-81
2023/09/22 04:40:44;;;;;;;20.67;13.68;;;;;;;;;;6249775;28;20045;-78
2023/09/22 04:43:46;;;;;;;17.52;12.80;;;;;;;;;;6245134;28;20080;-80
2023/09/22 04:46:48;;;;;;;21.60;12.65;;;;;;;;;;6246117;28;20049;-79
2023/09/22 04:49:50;;;;;;;16.17;12.48;;;;;;;;;;6248873;28;20129;-81
2023/09/22 04:52:53;;;;;;;15.75;12.15;;;;;;;;;;6246873;28;20345;-81
2023/09/22 04:56:03;;;;;;;16.98;11.55;;;;;;;;;;6244534;28;20150;-80
2023/09/22 04:59:06;;;;;;;17.58;11.63;;;;;;;;;;6251447;28;20045;-78
2023/09/22 05:02:10;;;;;;;20.27;11.80;;;;;;;;;;6250347;28;20337;-77
2023/09/22 05:05:12;;;;;;;14.75;11.43;;;;;;;;;;6250122;28;20053;-80
2023/09/22 05:08:14;;;;;;;20.45;11.60;;;;;;;;;;6251491;28;20689;-82
2023/09/22 05:11:17;;;;;;;14.00;11.02;;;;;;;;;;6248968;28;20055;-79
2023/09/22 05:14:19;;;;;;;17.85;11.57;;;;;;;;;;6253435;28;20272;-80
2023/09/22 05:17:22;;;;;;;16.08;11.45;;;;;;;;;;6273852;28;20463;-80
2023/09/22 05:20:24;;;;;;;19.13;11.55;;;;;;;;;;6275828;28;20061;-81
2023/09/22 05:23:25;;;;;;;18.13;11.82;;;;;;;;;;6271222;28;20048;-78
2023/09/22 05:26:29;;;;;;;17.33;10.63;;;;;;;;;;6276570;28;20071;-80
2023/09/22 05:29:30;;;;;;;14.43;10.35;;;;;;;;;;6270613;28;20340;-79
2023/09/22 05:32:32;;;;;;;14.45;9.73;;;;;;;;;;6275628;28;20333;-78
2023/09/22 05:35:35;;;;;;;17.00;9.40;;;;;;;;;;6274780;28;20053;-78
2023/09/22 05:38:37;;;;;;;18.47;9.47;;;;;;;;;;6276554;28;20068;-78
2023/09/22 05:41:40;;;;;;;12.88;8.88;;;;;;;;;;6272193;28;20348;-77
2023/09/22 05:44:44;;;;;;;14.43;8.65;;;;;;;;;;6256775;28;20350;-77
2023/09/22 05:47:46;;;;;;;12.60;8.30;;;;;;;;;;6251877;28;20381;-81
2023/09/22 05:50:56;;;;;;;10.00;8.10;;;;;;;;;;6251860;28;20041;-79
2023/09/22 05:53:59;;;;;;;12.18;7.43;;;;;;;;;;6258602;28;20385;-80
2023/09/22 05:57:02;;;;;;;10.95;7.35;;;;;;;;;;6257405;28;20083;-78
2023/09/22 06:00:15;;;;;;;;;;;;;;;;;;6257860;28;20053;-78
2023/09/22 06:03:19;;;;;;;11.43;6.45;;;;;;;;;;6251070;28;19925;-78
2023/09/22 06:06:21;;;;;;;13.48;7.18;;;;;;;;;;6254832;28;20175;-78
2023/09/22 06:09:23;;;;;;;8.80;6.10;;;;;;;;;;6254550;28;20080;-77
2023/09/22 06:12:26;;;;;;;10.68;6.53;;;;;;;;;;6256822;28;20056;-77
2023/09/22 06:15:28;;;;;;;9.30;5.95;;;;;;;;;;6269724;28;20281;-78
2023/09/22 06:18:30;;;;;;;11.48;6.68;;;;;;;;;;6283147;28;20123;-78
2023/09/22 06:21:32;;;;;;;11.50;6.10;;;;;;;;;;6279782;28;20056;-77
2023/09/22 06:24:33;;;;;;;8.05;5.47;;;;;;;;;;6278982;28;20073;-78
2023/09/22 06:27:37;;;;;;;7.63;5.28;;;;;;;;;;6278750;28;20371;-76
2023/09/22 06:30:40;;;;;;;9.88;5.10;;;;;;;;;;6277699;28;20122;-79
2023/09/22 06:33:42;;;;;;;;;;;;;;;;;;6259253;28;20049;-77
2023/09/22 06:36:44;;;;;;;7.53;4.47;;;;;;;;;;6278585;28;21778;-76
2023/09/22 06:39:45;;;;;;;7.28;4.68;;;;;;;;;;6277659;28;20060;-77
2023/09/22 06:42:49;;;;;;;8.90;4.53;;;;;;;;;;6278510;28;20055;-77
2023/09/22 06:45:52;;;;;;;6.18;4.68;;;;;;;;;;6278374;28;20056;-77
2023/09/22 06:48:55;;;;;;;;;;;;;;;;;;6275073;28;20092;-79
2023/09/22 06:51:58;;;;;;;10.18;4.72;;;;;;;;;;6253707;28;19948;-77
2023/09/22 06:55:01;;;;;;;7.82;4.50;;;;;;;;;;6257054;28;20061;-78
2023/09/22 06:58:06;;;;;;;9.60;4.57;;;;;;;;;;6256291;28;20060;-77
2023/09/22 07:01:09;;;;;;;8.20;4.55;;;;;;;;;;6254345;28;20356;-78
2023/09/22 07:04:12;;;;;;;7.82;3.90;;;;;;;;;;6255116;28;20053;-77
2023/09/22 07:07:14;;;;;;;7.35;4.00;;;;;;;;;;6255355;28;20754;-77
2023/09/22 07:10:17;;;;;;;8.32;4.38;;;;;;;;;;6256277;28;20053;-77
2023/09/22 07:13:20;;;;;;;8.38;4.05;;;;;;;;;;6253439;28;20118;-76
2023/09/22 07:16:22;;;;;;;7.28;3.70;;;;;;;;;;6243753;28;20046;-77
2023/09/22 07:19:23;;;;;;;8.27;3.78;;;;;;;;;;6224178;28;20059;-77
2023/09/22 07:22:25;;;;;;;8.45;4.20;;;;;;;;;;6229713;28;20338;-78
2023/09/22 07:25:27;;;;;;;7.38;4.28;;;;;;;;;;6225359;28;20042;-77
2023/09/22 07:28:30;;;;;;;8.73;3.70;;;;;;;;;;6246487;28;20388;-77
2023/09/22 07:31:32;;;;;;;8.93;3.85;;;;;;;;;;6225859;28;20060;-76
2023/09/22 07:34:34;;;;;;;6.60;4.28;;;;;;;;;;6237067;28;20120;-76
2023/09/22 07:37:36;;;;;;;6.78;3.80;;;;;;;;;;6247711;28;20063;-77
2023/09/22 07:40:38;;;;;;;8.00;4.00;;;;;;;;;;6250395;28;20111;-77
2023/09/22 07:43:41;;;;;;;5.07;3.90;;;;;;;;;;6231759;28;20046;-76
2023/09/22 07:46:43;;;;;;;10.07;4.32;;;;;;;;;;6231814;28;20263;-76
2023/09/22 07:49:45;;;;;;;7.38;3.85;;;;;;;;;;6227202;28;20116;-78
2023/09/22 07:52:47;;;;;;;7.55;4.57;;;;;;;;;;6230210;28;20220;-76
2023/09/22 07:55:51;;;;;;;9.43;4.60;;;;;;;;;;6236021;28;20057;-75
2023/09/22 07:58:55;;;;;;;8.05;4.32;;;;;;;;;;6248263;28;20350;-77
2023/09/22 08:01:59;;;;;;;6.10;4.15;;;;;;;;;;6249476;28;20099;-76
2023/09/22 08:05:00;;;;;;;10.25;4.43;;;;;;;;;;6250619;28;20057;-76
2023/09/22 08:08:05;;;;;;;10.15;4.75;;;;;;;;;;6224486;28;20227;-77
2023/09/22 08:11:06;;;;;;;8.68;5.43;;;;;;;;;;6226672;28;20073;-77
2023/09/22 08:14:10;;;;;;;9.00;4.60;;;;;;;;;;6231374;28;20108;-76
2023/09/22 08:17:11;;;;;;;9.93;4.85;;;;;;;;;;6253386;28;20060;-76
2023/09/22 08:20:13;;;;;;;9.00;4.90;;;;;;;;;;6251241;28;20245;-77
2023/09/22 08:23:15;;;;;;;8.98;5.50;;;;;;;;;;6255317;28;20049;-76
2023/09/22 08:26:18;;;;;;;10.23;5.05;;;;;;;;;;6250407;28;20325;-76
2023/09/22 08:29:22;;;;;;;10.18;5.18;;;;;;;;;;6253397;28;20061;-76
2023/09/22 08:32:24;;;;;;;7.53;4.75;;;;;;;;;;6250056;28;20392;-75
2023/09/22 08:35:26;;;;;;;9.85;5.13;;;;;;;;;;6250283;28;20095;-76
2023/09/22 08:38:29;;;;;;;11.73;5.80;;;;;;;;;;6255142;28;20087;-76
2023/09/22 08:41:32;;;;;;;8.55;5.47;;;;;;;;;;6252663;28;20065;-77
2023/09/22 08:44:36;;;;;;;;;;;;;;;;;;6253192;28;20206;-76
2023/09/22 08:47:40;;;;;;;7.53;4.88;;;;;;;;;;6251570;28;20003;-76
2023/09/22 08:50:41;;;;;;;9.75;5.40;;;;;;;;;;6253546;28;20060;-76
2023/09/22 08:53:43;;;;;;;8.57;5.18;;;;;;;;;;6250989;28;20061;-75
2023/09/22 08:56:45;;;;;;;9.90;5.22;;;;;;;;;;6253284;28;20037;-75
2023/09/22 08:59:53;;;;;;;10.45;5.38;;;;;;;;;;6250566;28;20057;-76
2023/09/22 09:02:56;;;;;;;7.30;5.50;;;;;;;;;;6259864;28;20272;-77
2023/09/22 09:06:06;;;;;;;7.95;4.70;;;;;;;;;;6274034;28;20059;-75
2023/09/22 09:09:12;;;;;;;8.27;4.40;;;;;;;;;;6275874;28;20049;-76
2023/09/22 09:12:14;;;;;;;10.20;4.95;;;;;;;;;;6275444;28;20063;-75
2023/09/22 09:15:18;;;;;;;7.45;4.43;;;;;;;;;;6275963;28;20059;-77
2023/09/22 09:18:20;;;;;;;10.63;4.60;;;;;;;;;;6273993;28;20278;-76
2023/09/22 09:21:22;;;;;;;8.30;4.47;;;;;;;;;;6273799;28;20063;-77
2023/09/22 09:24:24;;;;;;;8.50;3.95;;;;;;;;;;6276393;28;20451;-78
2023/09/22 09:27:26;;;;;;;5.78;3.67;;;;;;;;;;6274684;28;20044;-76
2023/09/22 09:30:31;;;;;;;9.60;4.38;;;;;;;;;;6282374;28;20056;-75
2023/09/22 09:33:34;;;;;;;8.07;4.63;;;;;;;;;;6279164;28;20120;-75
2023/09/22 09:36:36;;;;;;;7.43;4.55;;;;;;;;;;6281881;28;20345;-75
2023/09/22 09:39:45;;;;;;;10.23;4.68;;;;;;;;;;6281794;28;20053;-75
2023/09/22 09:42:49;;;;;;;6.35;5.10;;;;;;;;;;6281531;28;20071;-75
2023/09/22 09:45:56;;;;;;;7.68;5.03;;;;;;;;;;6282065;28;20344;-76
2023/09/22 09:48:58;;;;;;;14.52;5.50;;;;;;;;;;6282366;28;20167;-76
2023/09/22 09:52:02;;;;;;;11.48;5.22;;;;;;;;;;6280116;28;20080;-76
2023/09/22 09:55:09;;;;;;;9.15;5.05;;;;;;;;;;6278560;28;20236;-76
2023/09/22 09:58:12;;;;;;;9.52;5.07;;;;;;;;;;6271272;28;20085;-76
2023/09/22 10:01:17;;;;;;;11.30;6.10;;;;;;;;;;6253376;28;20070;-76
2023/09/22 10:04:20;;;;;;;9.18;5.90;;;;;;;;;;6277261;28;20907;-77
2023/09/22 10:07:22;;;;;;;15.80;5.90;;;;;;;;;;6279598;28;20061;-75
2023/09/22 10:10:24;;;;;;;8.40;5.20;;;;;;;;;;6279434;28;20045;-76
2023/09/22 10:13:27;;;;;;;10.13;5.40;;;;;;;;;;6277494;28;20259;-76
2023/09/22 10:16:30;;;;;;;10.70;5.40;;;;;;;;;;6280394;28;20116;-77
2023/09/22 10:19:41;;;;;;;8.40;6.10;;;;;;;;;;6278146;28;20079;-76
2023/09/22 10:22:43;;;;;;;11.00;5.28;;;;;;;;;;6279601;28;20126;-76
2023/09/22 10:26:14;;;;;;;10.98;5.47;;;;;;;;;;6279008;28;20049;-76
2023/09/22 10:29:51;;;;;;;11.30;6.43;;;;;;;;;;6277476;28;20059;-76
2023/09/22 10:33:35;;;;;;;9.38;6.55;;;;;;;;;;6280212;28;20053;-77
2023/09/22 10:36:47;;;;;;;10.10;6.40;;;;;;;;;;6277429;28;20221;-75
2023/09/22 10:39:53;;;;;;;9.15;6.55;;;;;;;;;;6279759;28;20091;-77
2023/09/22 10:42:55;;;;;;;11.63;6.43;;;;;;;;;;6277673;28;20060;-76
2023/09/22 10:45:57;;;;;;;11.20;7.07;;;;;;;;;;6280316;28;20130;-77
2023/09/22 10:49:00;;;;;;;13.38;6.63;;;;;;;;;;6278300;28;20271;-76
2023/09/22 10:52:02;;;;;;;10.77;7.10;;;;;;;;;;6277041;28;20125;-76
2023/09/22 10:55:05;;;;;;;12.25;6.95;;;;;;;;;;6277164;28;20395;-75
2023/09/22 10:58:09;;;;;;;11.63;6.68;;;;;;;;;;6278872;28;20064;-76
2023/09/22 11:01:13;;;;;;;16.17;7.30;;;;;;;;;;6277787;28;20053;-76
2023/09/22 11:04:17;;;;;;;;;;;;;;;;;;6277114;28;20330;-78
2023/09/22 11:07:31;;;;;;;7.97;6.40;;;;;;;;;;6279566;28;19947;-76
2023/09/22 11:10:33;;;;;;;13.07;7.53;;;;;;;;;;6277051;28;20059;-76
2023/09/22 11:13:35;;;;;;;11.07;7.15;;;;;;;;;;6277264;28;20106;-76
2023/09/22 11:16:37;;;;;;;13.00;7.13;;;;;;;;;;6275257;28;20086;-75
2023/09/22 11:19:52;;;;;;;12.90;7.45;;;;;;;;;;6274547;28;20051;-77
2023/09/22 11:22:54;;;;;;;11.55;7.25;;;;;;;;;;6276127;28;20059;-75
2023/09/22 11:25:57;;;;;;;11.35;7.65;;;;;;;;;;6274359;28;20056;-76
2023/09/22 11:29:01;;;;;;;11.55;7.60;;;;;;;;;;6276348;28;20067;-75
2023/09/22 11:32:04;;;;;;;11.57;8.00;;;;;;;;;;6270897;28;20049;-76
2023/09/22 11:35:07;;;;;;;11.35;7.40;;;;;;;;;;6253283;28;20065;-76
2023/09/22 11:38:23;;;;;;;9.68;7.32;;;;;;;;;;6248340;28;20059;-76
2023/09/22 11:41:26;;;;;;;11.90;7.57;;;;;;;;;;6250405;28;20083;-75
2023/09/22 11:44:28;;;;;;;12.50;8.23;;;;;;;;;;6251108;28;20076;-75
2023/09/22 11:47:30;;;;;;;14.77;7.60;;;;;;;;;;6251743;28;20102;-76
2023/09/22 11:50:33;;;;;;;15.25;8.13;;;;;;;;;;6247795;28;20057;-76
2023/09/22 11:53:35;;;;;;;;;;;;;;;;;;6250648;28;20042;-76
2023/09/22 11:56:37;;;;;;;14.52;9.50;;;;;;;;;;6251359;28;19917;-76
2023/09/22 11:59:40;;;;;;;21.75;13.50;;;;;;;;;;6248685;28;20045;-76
2023/09/22 12:02:42;;;;;;;14.48;9.68;;;;;;;;;;6251267;28;20057;-79
2023/09/22 12:05:46;;;;;;;15.55;9.65;;;;;;;;;;6254277;28;20049;-77
2023/09/22 12:08:48;;;;;;;;;;;;;;;;;;6255903;28;20103;-78
2023/09/22 12:11:50;;;;;;;14.55;8.77;;;;;;;;;;6241041;28;20129;-78
2023/09/22 12:14:52;;;;;;;15.55;8.68;;;;;;;;;;6262500;28;20080;-78
2023/09/22 12:17:54;;;;;;;16.40;9.13;;;;;;;;;;6261115;28;20079;-74
2023/09/22 12:20:57;;;;;;;11.68;8.38;;;;;;;;;;6276526;28;20359;-77
2023/09/22 12:23:59;;;;;;;12.00;7.65;;;;;;;;;;6274176;28;20049;-74
2023/09/22 12:27:03;;;;;;;13.27;7.30;;;;;;;;;;6276212;28;20116;-74
2023/09/22 12:30:06;;;;;;;12.45;7.72;;;;;;;;;;6273422;28;20056;-76
2023/09/22 12:33:08;;;;;;;13.65;7.47;;;;;;;;;;6274726;28;20325;-75
2023/09/22 12:36:13;;;;;;;23.77;10.18;;;;;;;;;;6273619;28;20053;-76
2023/09/22 12:39:16;;;;;;;16.13;10.43;;;;;;;;;;6251144;28;20061;-78
2023/09/22 12:42:18;;;;;;;19.15;12.55;;;;;;;;;;6262886;28;20068;-77
2023/09/22 12:45:22;;;;;;;21.08;13.23;;;;;;;;;;6273985;28;20064;-80
2023/09/22 12:48:24;;;;;;;25.15;15.18;;;;;;;;;;6274687;28;20108;-76
2023/09/22 12:51:28;;;;;;;21.05;15.43;;;;;;;;;;6246518;28;20041;-76
2023/09/22 12:54:30;;;;;;;26.08;16.52;;;;;;;;;;6275945;28;20056;-77
2023/09/22 12:57:32;;;;;;;26.75;16.92;;;;;;;;;;6273053;28;20258;-76
2023/09/22 13:00:42;;;;;;;32.30;15.73;;;;;;;;;;6277783;28;20049;-75
2023/09/22 13:03:45;;;;;;;19.02;14.45;;;;;;;;;;6272632;28;20071;-76
2023/09/22 13:06:48;;;;;;;18.85;13.50;;;;;;;;;;6271910;28;20069;-78
2023/09/22 13:09:50;;;;;;;21.75;12.70;;;;;;;;;;6253480;28;20049;-78
2023/09/22 13:12:52;;;;;;;20.98;12.48;;;;;;;;;;6260371;28;20057;-77
2023/09/22 13:15:54;;;;;;;19.42;13.27;;;;;;;;;;6247964;28;20042;-76
2023/09/22 13:18:56;;;;;;;15.52;11.00;;;;;;;;;;6249689;28;20061;-76
2023/09/22 13:22:00;;;;;;;18.02;10.32;;;;;;;;;;6251673;28;20075;-79
2023/09/22 13:25:02;;;;;;;13.43;9.90;;;;;;;;;;6253861;28;20053;-80
2023/09/22 13:28:05;;;;;;;16.00;10.40;;;;;;;;;;6252707;28;20112;-80
2023/09/22 13:31:08;;;;;;;18.17;11.00;;;;;;;;;;6250131;28;20047;-78
2023/09/22 13:34:12;;;;;;;15.35;10.80;;;;;;;;;;6252177;28;20053;-78
2023/09/22 13:37:16;;;;;;;15.52;9.23;;;;;;;;;;6251718;28;20064;-78
2023/09/22 13:40:21;;;;;;;11.85;8.77;;;;;;;;;;6268000;28;20071;-78
2023/09/22 13:43:23;;;;;;;11.70;7.35;;;;;;;;;;6249552;28;20049;-78
2023/09/22 13:46:28;;;;;;;13.23;7.47;;;;;;;;;;6243992;28;20063;-78
2023/09/22 13:49:30;;;;;;;8.93;6.10;;;;;;;;;;6252444;28;20045;-78
2023/09/22 13:52:34;;;;;;;11.63;6.13;;;;;;;;;;6250735;28;20053;-78
2023/09/22 13:55:38;;;;;;;7.10;4.90;;;;;;;;;;6253236;28;20057;-78
2023/09/22 13:58:41;;;;;;;7.90;4.60;;;;;;;;;;6250833;28;20244;-77
2023/09/22 14:01:44;;;;;;;7.80;4.70;;;;;;;;;;6253855;28;20053;-78
2023/09/22 14:04:46;;;;;;;8.48;4.40;;;;;;;;;;6275513;28;20073;-76
2023/09/22 14:07:52;;;;;;;9.18;4.28;;;;;;;;;;6276623;28;20123;-77
2023/09/22 14:10:56;;;;;;;8.00;4.32;;;;;;;;;;6274270;28;20377;-76
2023/09/22 14:13:58;;;;;;;7.78;4.00;;;;;;;;;;6275848;28;20114;-77
2023/09/22 14:17:00;;;;;;;17.70;10.05;;;;;;;;;;6273020;28;20079;-77
2023/09/22 14:20:04;;;;;;;102.32;60.90;;;;;;;;;;6274370;28;20060;-77
2023/09/22 14:23:08;;;;;;;17.00;8.95;;;;;;;;;;6275934;28;20055;-78
2023/09/22 14:26:13;;;;;;;52.35;31.13;;;;;;;;;;6279751;28;20068;-80
2023/09/22 14:29:15;;;;;;;82.82;43.38;;;;;;;;;;6281617;28;20049;-79
2023/09/22 14:32:16;;;;;;;29.73;18.00;;;;;;;;;;6263220;28;20064;-79
2023/09/22 14:35:19;;;;;;;42.33;29.38;;;;;;;;;;6265101;28;20067;-75
2023/09/22 14:38:22;;;;;;;10.97;6.40;;;;;;;;;;6271323;28;20054;-76
2023/09/22 14:41:24;;;;;;;10.45;6.43;;;;;;;;;;6268242;28;20244;-76
2023/09/22 14:44:27;;;;;;;9.73;6.32;;;;;;;;;;6278720;28;20049;-76
2023/09/22 14:47:29;;;;;;;12.32;6.55;;;;;;;;;;6277278;28;20071;-78
2023/09/22 14:50:32;;;;;;;12.93;6.78;;;;;;;;;;6277967;28;20045;-77
2023/09/22 14:53:35;;;;;;;13.05;6.55;;;;;;;;;;6278146;28;20092;-76
2023/09/22 14:56:37;;;;;;;10.10;6.20;;;;;;;;;;6278299;28;20234;-77
2023/09/22 14:59:39;;;;;;;9.98;6.40;;;;;;;;;;6271462;28;20052;-78
2023/09/22 15:02:41;;;;;;;11.68;6.72;;;;;;;;;;6278157;28;20056;-77
2023/09/22 15:05:43;;;;;;;11.15;7.35;;;;;;;;;;6274569;28;20118;-75
2023/09/22 15:08:47;;;;;;;10.48;6.82;;;;;;;;;;6279900;28;20324;-75
2023/09/22 15:11:49;;;;;;;11.48;6.47;;;;;;;;;;6274673;28;20049;-76
2023/09/22 15:14:54;;;;;;;10.55;6.13;;;;;;;;;;6275172;28;20158;-74
2023/09/22 15:17:57;;;;;;;10.05;5.68;;;;;;;;;;6273824;28;20057;-75
2023/09/22 15:21:00;;;;;;;11.70;5.55;;;;;;;;;;6279536;28;20328;-75
2023/09/22 15:24:04;;;;;;;7.10;5.03;;;;;;;;;;6277688;28;20053;-75
2023/09/22 15:27:06;;;;;;;11.82;4.97;;;;;;;;;;6278595;28;20859;-75
2023/09/22 15:30:09;;;;;;;6.30;3.45;;;;;;;;;;6279808;28;20244;-72
2023/09/22 15:33:11;;;;;;;4.60;2.65;;;;;;;;;;6276334;28;20379;-76
2023/09/22 15:36:13;;;;;;;4.38;1.60;;;;;;;;;;6276419;28;20127;-77
2023/09/22 15:39:17;;;;;;;4.13;1.80;;;;;;;;;;6271244;28;20123;-77
2023/09/22 15:42:19;;;;;;;3.80;1.55;;;;;;;;;;6276866;28;20072;-76
2023/09/22 15:45:21;;;;;;;5.33;1.60;;;;;;;;;;6275715;28;20261;-76
2023/09/22 15:48:23;;;;;;;5.38;1.45;;;;;;;;;;6276360;28;20064;-76
2023/09/22 15:51:26;;;;;;;2.70;1.52;;;;;;;;;;6263175;28;20079;-78
2023/09/22 15:54:30;;;;;;;4.85;1.38;;;;;;;;;;6255516;28;20370;-77
2023/09/22 15:57:33;;;;;;;4.18;1.30;;;;;;;;;;6250723;28;20052;-76
2023/09/22 16:00:39;;;;;;;4.95;1.40;;;;;;;;;;6245007;28;20084;-73
2023/09/22 16:03:42;;;;;;;2.75;1.30;;;;;;;;;;6254083;28;20355;-76
2023/09/22 16:06:44;;;;;;;7.05;1.60;;;;;;;;;;6251180;28;20348;-76
2023/09/22 16:09:48;;;;;;;5.50;1.10;;;;;;;;;;6254875;28;20064;-76
2023/09/22 16:12:50;;;;;;;4.68;1.50;;;;;;;;;;6250447;28;20053;-77
2023/09/22 16:15:52;;;;;;;4.97;1.38;;;;;;;;;;6258656;28;20341;-75
2023/09/22 16:18:58;;;;;;;4.20;0.98;;;;;;;;;;6252786;28;20398;-76
2023/09/22 16:22:00;;;;;;;2.83;1.10;;;;;;;;;;6276171;28;20064;-76
2023/09/22 16:25:06;;;;;;;4.10;1.35;;;;;;;;;;6276329;28;20053;-76
2023/09/22 16:28:08;;;;;;;3.40;1.13;;;;;;;;;;6274998;28;20325;-76
2023/09/22 16:31:11;;;;;;;2.33;1.37;;;;;;;;;;6277368;28;20048;-75
2023/09/22 16:34:13;;;;;;;4.40;1.47;;;;;;;;;;6274158;28;20112;-76
2023/09/22 16:37:15;;;;;;;2.13;0.90;;;;;;;;;;6278829;28;20113;-75
2023/09/22 16:40:19;;;;;;;2.83;1.10;;;;;;;;;;6276679;28;20119;-76
2023/09/22 16:43:22;;;;;;;5.30;1.02;;;;;;;;;;6275840;28;20052;-76
2023/09/22 16:46:24;;;;;;;4.10;1.00;;;;;;;;;;6276062;28;20236;-75
2023/09/22 16:49:29;;;;;;;3.83;0.93;;;;;;;;;;6272753;28;20076;-75
2023/09/22 16:52:32;;;;;;;2.35;0.90;;;;;;;;;;6265137;28;20045;-75
2023/09/22 16:55:36;;;;;;;3.35;0.85;;;;;;;;;;6260299;28;20044;-75
2023/09/22 16:58:40;;;;;;;8.23;1.58;;;;;;;;;;6267638;28;20053;-75
2023/09/22 17:01:42;;;;;;;3.65;1.00;;;;;;;;;;6244985;28;20064;-75
2023/09/22 17:04:44;;;;;;;4.00;0.82;;;;;;;;;;6251501;28;20117;-75
2023/09/22 17:07:46;;;;;;;5.18;1.15;;;;;;;;;;6262729;28;20256;-75
2023/09/22 17:10:50;;;;;;;3.22;1.00;;;;;;;;;;6264293;28;20061;-76
2023/09/22 17:13:53;;;;;;;4.05;1.02;;;;;;;;;;6250742;28;20111;-75
2023/09/22 17:16:57;;;;;;;5.20;1.52;;;;;;;;;;6235153;28;20115;-75
2023/09/22 17:19:59;;;;;;;6.45;1.13;;;;;;;;;;6247946;28;20053;-74
2023/09/22 17:23:01;;;;;;;5.03;1.02;;;;;;;;;;6244011;28;20103;-75
2023/09/22 17:26:23;;;;;;;3.83;1.23;;;;;;;;;;6248754;28;20076;-76
2023/09/22 17:29:25;;;;;;;4.03;1.10;;;;;;;;;;6244045;28;20080;-77
2023/09/22 17:32:27;;;;;;;3.70;1.60;;;;;;;;;;6243553;28;20056;-79
2023/09/22 17:35:29;;;;;;;4.40;1.65;;;;;;;;;;6250435;28;20069;-77
2023/09/22 17:38:32;;;;;;;3.85;1.35;;;;;;;;;;6242985;28;20137;-77
2023/09/22 17:41:38;;;;;;;4.55;1.23;;;;;;;;;;6244621;28;20042;-77
2023/09/22 17:44:40;;;;;;;7.18;1.60;;;;;;;;;;6230819;28;20155;-77
2023/09/22 17:47:42;;;;;;;5.07;1.58;;;;;;;;;;6228522;28;20061;-78
2023/09/22 17:50:44;;;;;;;4.25;1.40;;;;;;;;;;6232197;28;20081;-78
2023/09/22 17:53:47;;;;;;;5.13;1.13;;;;;;;;;;6229020;28;20355;-77
2023/09/22 17:56:51;;;;;;;4.38;1.88;;;;;;;;;;6233367;28;20046;-77
2023/09/22 17:59:52;;;;;;;;;;;;;;;;;;6232676;28;20054;-77
2023/09/22 18:02:56;;;;;;;4.93;2.05;;;;;;;;;;6231094;28;19925;-76
2023/09/22 18:05:59;;;;;;;3.15;1.67;;;;;;;;;;6229378;28;20054;-80
2023/09/22 18:09:03;;;;;;;5.13;1.63;;;;;;;;;;6231261;28;20057;-78